Tropical Cyclones
[Index]
Main Index Home Page Stock Weather Photos Extreme Storms Discussion Storm News and Storm Chasing Reports Tropical Cyclones / Hurricanes / Typhoons Weather Data and Links Wild Fires / Bushfires Weather Observation Techniques Weather Picture Catalogue Tornado Pictures and Reports Stock Video Footage and DVDs for sale
Season 2011-2012 Tropical Cyclone ALENGA Track Map
Season 2011-2012 Summaries: [BoM-AU] [JTWC-AU] [JTWC-SIO] [JTWC-SPAC] [JTWC-SH]
<<- Previous TC | JTWC 2011-2012 Season | Next TC ->>

click for intensity scale information  Lat/long Grid: Show Hide

 Date Labels: Show Hide

Joint Typhoon Warning Centre Cyclone Data

Name: ALENGA

02 Dec 2011 06:00 UTC to 09 Dec 2011 12:00 UTC

    date/time    lat    long     hPa   cat  kts
2011-12-02 06    6.1    97.2    1010         15          
2011-12-02 12    6.5    96.8    1010         15          
2011-12-02 18    7.3    96.4    1007         20          
2011-12-03 00    8.1    95.9    1007         20          
2011-12-03 06    9.1    95.5    1007         20          
2011-12-03 12    9.7    94.6    1004         25          
2011-12-03 18   10.8    94.0    1000         30          
2011-12-04 00   11.9    92.9    1000         30          
2011-12-04 06   12.5    91.2    1000         30          
2011-12-04 12   12.8    89.6    1000         30          
2011-12-04 18   12.6    88.8     996         35          
2011-12-05 00   12.3    88.1     993    1    40          
2011-12-05 06   12.2    87.8     985    1    50          
2011-12-05 06   12.2    87.8     985    1    50          
2011-12-05 12   12.3    87.5     985    1    50          
2011-12-05 12   12.3    87.5     985    1    50          
2011-12-05 18   12.2    87.2     985    1    50          
2011-12-05 18   12.2    87.2     985    1    50          
2011-12-06 00   12.6    87.2     989    1    45          
2011-12-06 06   13.0    87.4     989    1    45          
2011-12-06 12   13.5    87.6     989    1    45          
2011-12-06 18   13.6    88.2     985    1    50          
2011-12-07 00   13.7    89.0     982    2    55          
2011-12-07 00   13.7    89.0     982    2    55          
2011-12-07 06   14.3    90.2     978    2    60          
2011-12-07 06   14.3    90.2     978    2    60          
2011-12-07 12   14.8    91.5     978    2    60          
2011-12-07 12   14.8    91.5     978    2    60          
2011-12-07 18   15.4    93.1     970    2    70          
2011-12-07 18   15.4    93.1     970    2    70          
2011-12-07 18   15.4    93.1     970    2    70          
2011-12-08 00   16.3    94.8     956    3    90          
2011-12-08 00   16.3    94.8     956    3    90          
2011-12-08 00   16.3    94.8     956    3    90          
2011-12-08 06   17.4    96.8     952    3    95          
2011-12-08 06   17.4    96.8     952    3    95          
2011-12-08 06   17.4    96.8     952    3    95          
2011-12-08 12   18.4    98.8     952    3    80          
2011-12-08 12   18.4    98.8     952    3    80          
2011-12-08 12   18.4    98.8     952    3    80          
2011-12-08 18   19.7   100.6     974    2    65          
2011-12-08 18   19.7   100.6     974    2    65          
2011-12-08 18   19.7   100.6     974    2    65          
2011-12-09 00   20.6   101.8     989    1    45          
2011-12-09 06   21.3   102.5    1000         30          
2011-12-09 12   21.4   102.9    1004         25          
Winds are 1-min average.

Tropical cyclone tracks developed by Michael Bath using data from the Joint Typhoon Warning Centre Best Tracks and Google Maps.


[Australian Severe Weather index] [Copyright Notice] [Email Contacts] [Search This Site] [Privacy Policy]
Document: tropical_cyclone_alenga.htm Updated: 28 June 2017